createdAt,value
2024-03-02T00:00:21.823Z,340.49
2024-03-02T00:01:21.954Z,339.08
2024-03-02T00:02:21.760Z,338.73
2024-03-02T00:03:21.778Z,340.85
2024-03-02T00:04:21.755Z,340.49
2024-03-02T00:05:21.757Z,338.39
2024-03-02T00:06:21.829Z,338.73
2024-03-02T00:07:21.708Z,340.85
2024-03-02T00:08:21.706Z,341.20
2024-03-02T00:09:21.699Z,340.14
2024-03-02T00:10:21.677Z,339.79
2024-03-02T00:11:21.722Z,340.85
2024-03-02T00:12:21.686Z,339.79
2024-03-02T00:13:21.656Z,340.85
2024-03-02T00:14:21.619Z,340.85
2024-03-02T00:15:21.650Z,338.73
2024-03-02T00:16:21.630Z,339.43
2024-03-02T00:17:21.594Z,341.20
2024-03-02T00:18:21.615Z,338.39
2024-03-02T00:19:21.561Z,337.34
2024-03-02T00:20:21.561Z,338.73
2024-03-02T00:21:21.696Z,339.08
2024-03-02T00:22:21.665Z,339.43
2024-03-02T00:23:21.542Z,339.08
2024-03-02T00:24:21.555Z,341.55
2024-03-02T00:25:21.519Z,340.85
2024-03-02T00:26:21.499Z,339.08
2024-03-02T00:27:21.545Z,339.43
2024-03-02T00:28:21.489Z,339.43
2024-03-02T00:29:21.580Z,340.49
2024-03-02T00:30:21.442Z,339.79
2024-03-02T00:31:21.443Z,340.49
2024-03-02T00:32:21.446Z,341.20
2024-03-02T00:33:21.490Z,340.49
2024-03-02T00:34:21.438Z,342.27
2024-03-02T00:35:21.424Z,340.85
2024-03-02T00:36:21.420Z,340.85
2024-03-02T00:37:21.362Z,339.79
2024-03-02T00:38:21.353Z,340.85
2024-03-02T00:39:21.367Z,341.20
2024-03-02T00:40:21.337Z,340.14
2024-03-02T00:41:21.463Z,341.91
2024-03-02T00:42:21.347Z,342.27
2024-03-02T00:43:21.354Z,340.49
2024-03-02T00:44:21.297Z,340.85
2024-03-02T00:45:21.353Z,340.49
2024-03-02T00:46:21.279Z,340.85
2024-03-02T00:47:21.337Z,340.49
2024-03-02T00:48:21.300Z,340.49
2024-03-02T00:49:21.290Z,338.73
2024-03-02T00:50:27.037Z,340.85
2024-03-02T00:51:22.280Z,341.55
2024-03-02T00:52:21.217Z,344.42
2024-03-02T00:53:21.197Z,342.98
2024-03-02T00:54:21.249Z,342.62
2024-03-02T00:55:21.172Z,343.34
2024-03-02T00:56:21.171Z,341.55
2024-03-02T00:57:21.181Z,343.70
2024-03-02T00:58:21.147Z,344.06
2024-03-02T00:59:21.206Z,340.85
2024-03-02T01:00:21.145Z,342.98
2024-03-02T01:01:21.130Z,343.34
2024-03-02T01:02:21.099Z,340.85
2024-03-02T01:03:21.104Z,344.06
2024-03-02T01:04:21.190Z,344.42
2024-03-02T01:05:21.084Z,343.34
2024-03-02T01:06:21.252Z,342.62
2024-03-02T01:07:21.040Z,343.34
2024-03-02T01:08:21.041Z,344.42
2024-03-02T01:09:21.062Z,341.55
2024-03-02T01:10:21.038Z,342.98
2024-03-02T01:11:21.048Z,341.20
2024-03-02T01:12:21.080Z,342.27
2024-03-02T01:13:20.972Z,343.34
2024-03-02T01:14:20.997Z,343.34
2024-03-02T01:15:21.038Z,345.51
2024-03-02T01:16:20.990Z,344.06
2024-03-02T01:17:20.938Z,342.62
2024-03-02T01:18:20.944Z,345.51
2024-03-02T01:19:21.010Z,341.91
2024-03-02T01:20:20.918Z,342.62
2024-03-02T01:21:20.966Z,345.51
2024-03-02T01:22:21.010Z,342.27
2024-03-02T01:23:20.896Z,345.51
2024-03-02T01:24:20.869Z,342.98
2024-03-02T01:25:20.955Z,343.70
2024-03-02T01:26:20.901Z,345.88
2024-03-02T01:27:20.840Z,342.98
2024-03-02T01:28:20.844Z,343.70
2024-03-02T01:29:20.818Z,345.51
2024-03-02T01:30:20.917Z,341.91
2024-03-02T01:31:20.808Z,344.79
2024-03-02T01:32:20.775Z,344.79
2024-03-02T01:33:20.848Z,344.06
2024-03-02T01:34:20.797Z,344.79
2024-03-02T01:35:20.756Z,346.61
2024-03-02T01:36:20.806Z,344.42
2024-03-02T01:37:20.738Z,345.15
2024-03-02T01:38:20.721Z,344.06
2024-03-02T01:39:20.744Z,345.51
2024-03-02T01:40:20.718Z,343.34
2024-03-02T01:41:20.758Z,345.51
2024-03-02T01:42:20.686Z,344.42
2024-03-02T01:43:20.665Z,344.06
2024-03-02T01:44:20.641Z,345.51
2024-03-02T01:45:20.758Z,346.24
2024-03-02T01:46:20.648Z,346.24
2024-03-02T01:47:20.611Z,345.15
2024-03-02T01:48:20.948Z,346.61
2024-03-02T01:49:20.629Z,346.97
2024-03-02T01:50:20.602Z,347.34
2024-03-02T01:51:20.588Z,344.42
2024-03-02T01:52:20.627Z,348.08
2024-03-02T01:53:20.573Z,348.45
2024-03-02T01:54:20.549Z,348.08
2024-03-02T01:55:20.587Z,349.56
2024-03-02T01:56:20.505Z,347.34
2024-03-02T01:57:20.702Z,346.61
2024-03-02T01:58:20.500Z,345.88
2024-03-02T01:59:20.488Z,348.45
2024-03-02T02:00:20.526Z,348.08
2024-03-02T02:01:20.517Z,349.93
2024-03-02T02:02:20.451Z,348.45
2024-03-02T02:03:20.467Z,346.97
2024-03-02T02:04:20.468Z,347.71
2024-03-02T02:05:20.450Z,349.56
2024-03-02T02:06:20.423Z,345.88
2024-03-02T02:07:20.399Z,347.34
2024-03-02T02:08:20.395Z,348.82
2024-03-02T02:09:20.441Z,347.34
2024-03-02T02:10:20.463Z,348.45
2024-03-02T02:11:20.367Z,348.82
2024-03-02T02:12:20.370Z,347.71
2024-03-02T02:13:20.344Z,348.08
2024-03-02T02:14:20.333Z,348.82
2024-03-02T02:15:20.330Z,345.88
2024-03-02T02:16:20.290Z,349.19
2024-03-02T02:17:20.281Z,346.97
2024-03-02T02:18:20.335Z,348.45
2024-03-02T02:19:20.348Z,349.93
2024-03-02T02:20:20.557Z,350.68
2024-03-02T02:21:20.320Z,349.56
2024-03-02T02:22:20.237Z,347.71
2024-03-02T02:23:20.245Z,348.45
2024-03-02T02:24:20.236Z,350.31
2024-03-02T02:25:20.290Z,348.82
2024-03-02T02:26:20.184Z,347.71
2024-03-02T02:27:20.251Z,346.97
2024-03-02T02:28:20.180Z,350.31
2024-03-02T02:29:20.167Z,346.97
2024-03-02T02:30:20.165Z,347.34
2024-03-02T02:31:20.148Z,348.82
2024-03-02T02:32:20.214Z,347.34
2024-03-02T02:33:20.165Z,348.08
2024-03-02T02:34:20.098Z,347.34
2024-03-02T02:35:20.114Z,346.24
2024-03-02T02:36:20.104Z,348.45
2024-03-02T02:37:20.053Z,346.61
2024-03-02T02:38:20.151Z,349.19
2024-03-02T02:39:20.085Z,347.34
2024-03-02T02:40:20.179Z,346.61
2024-03-02T02:41:20.032Z,349.56
2024-03-02T02:42:20.016Z,346.97
2024-03-02T02:43:20.003Z,349.56
2024-03-02T02:44:19.983Z,346.24
2024-03-02T02:45:20.127Z,346.97
2024-03-02T02:46:19.985Z,348.08
2024-03-02T02:47:19.955Z,345.88
2024-03-02T02:48:19.995Z,347.71
2024-03-02T02:49:20.046Z,348.08
2024-03-02T02:50:19.928Z,345.51
2024-03-02T02:51:20.051Z,346.97
2024-03-02T02:52:19.897Z,346.97
2024-03-02T02:53:19.898Z,345.88
2024-03-02T02:54:19.920Z,346.97
2024-03-02T02:55:19.874Z,345.88
2024-03-02T02:56:19.900Z,347.34
2024-03-02T02:57:19.871Z,346.97
2024-03-02T02:58:19.829Z,345.51
2024-03-02T02:59:19.845Z,346.97
2024-03-02T03:00:20.333Z,344.79
2024-03-02T03:01:19.895Z,346.61
2024-03-02T03:02:19.927Z,347.71
2024-03-02T03:03:19.826Z,347.71
2024-03-02T03:04:19.791Z,345.88
2024-03-02T03:05:19.976Z,346.97
2024-03-02T03:06:19.794Z,346.24
2024-03-02T03:07:19.751Z,345.51
2024-03-02T03:08:19.770Z,345.88
2024-03-02T03:09:19.756Z,345.15
2024-03-02T03:10:19.831Z,344.79
2024-03-02T03:11:19.828Z,344.79
2024-03-02T03:12:19.744Z,344.06
2024-03-02T03:13:19.754Z,344.79
2024-03-02T03:14:19.674Z,344.79
2024-03-02T03:15:19.691Z,344.79
2024-03-02T03:16:19.666Z,345.15
2024-03-02T03:17:19.723Z,345.88
2024-03-02T03:18:19.711Z,344.79
2024-03-02T03:19:19.630Z,342.27
2024-03-02T03:20:19.614Z,342.98
2024-03-02T03:21:19.582Z,344.42
2024-03-02T03:22:19.612Z,344.42
2024-03-02T03:23:19.602Z,345.15
2024-03-02T03:24:19.568Z,345.15
2024-03-02T03:25:19.539Z,344.79
2024-03-02T03:26:19.585Z,344.06
2024-03-02T03:27:19.553Z,344.06
2024-03-02T03:28:19.618Z,344.79
2024-03-02T03:29:19.512Z,344.42
2024-03-02T03:30:19.515Z,344.06
2024-03-02T03:31:19.483Z,344.06
2024-03-02T03:32:19.544Z,343.70
2024-03-02T03:33:19.492Z,346.61
2024-03-02T03:34:19.496Z,342.98
2024-03-02T03:35:19.424Z,343.70
2024-03-02T03:36:19.550Z,342.62
2024-03-02T03:37:19.435Z,344.42
2024-03-02T03:38:19.409Z,342.98
2024-03-02T03:39:19.539Z,343.70
2024-03-02T03:40:19.406Z,342.62
2024-03-02T03:41:19.373Z,342.62
2024-03-02T03:42:19.449Z,341.91
2024-03-02T03:43:19.341Z,342.62
2024-03-02T03:44:19.334Z,346.97
2024-03-02T03:45:19.330Z,344.42
2024-03-02T03:46:19.337Z,342.27
2024-03-02T03:47:19.309Z,343.70
2024-03-02T03:48:19.295Z,343.34
2024-03-02T03:49:19.328Z,343.34
2024-03-02T03:50:19.321Z,343.70
2024-03-02T03:51:19.267Z,344.42
2024-03-02T03:52:19.276Z,343.34
2024-03-02T03:53:19.254Z,343.70
2024-03-02T03:54:19.424Z,346.24
2024-03-02T03:55:26.782Z,344.42
2024-03-02T03:56:19.228Z,345.15
2024-03-02T03:57:19.293Z,346.24
2024-03-02T03:58:22.053Z,346.24
2024-03-02T03:59:19.212Z,345.88
2024-03-02T04:00:19.321Z,344.79
2024-03-02T04:01:19.239Z,346.61
2024-03-02T04:02:19.226Z,347.71
2024-03-02T04:03:19.147Z,345.51
2024-03-02T04:04:19.179Z,344.79
2024-03-02T04:05:19.117Z,344.06
2024-03-02T04:06:19.142Z,346.24
2024-03-02T04:07:19.128Z,347.71
2024-03-02T04:08:19.123Z,344.42
2024-03-02T04:09:19.109Z,345.15
2024-03-02T04:10:19.075Z,345.51
2024-03-02T04:11:19.200Z,347.34
2024-03-02T04:12:19.142Z,347.34
2024-03-02T04:13:19.029Z,347.71
2024-03-02T04:14:19.145Z,345.51
2024-03-02T04:15:19.073Z,346.24
2024-03-02T04:16:18.985Z,347.71
2024-03-02T04:17:19.064Z,347.34
2024-03-02T04:18:19.180Z,346.97
2024-03-02T04:19:19.029Z,346.97
2024-03-02T04:20:18.976Z,346.24
2024-03-02T04:21:19.030Z,345.88
2024-03-02T04:22:25.025Z,347.71
2024-03-02T04:23:19.920Z,344.79
2024-03-02T04:24:18.917Z,344.79
2024-03-02T04:25:18.894Z,348.08
2024-03-02T04:26:18.938Z,349.56
2024-03-02T04:27:18.981Z,348.45
2024-03-02T04:28:18.906Z,345.88
2024-03-02T04:29:18.890Z,348.82
2024-03-02T04:30:18.908Z,347.34
2024-03-02T04:31:18.908Z,346.97
2024-03-02T04:32:18.827Z,348.08
2024-03-02T04:33:18.897Z,346.24
2024-03-02T04:34:18.806Z,349.93
2024-03-02T04:35:18.819Z,349.19
2024-03-02T04:36:18.833Z,347.34
2024-03-02T04:37:18.802Z,348.08
2024-03-02T04:38:18.768Z,349.19
2024-03-02T04:39:18.841Z,349.19
2024-03-02T04:40:18.787Z,346.61
2024-03-02T04:41:18.834Z,349.19
2024-03-02T04:42:18.843Z,349.19
2024-03-02T04:43:18.758Z,349.19
2024-03-02T04:44:18.740Z,346.61
2024-03-02T04:45:18.740Z,346.61
2024-03-02T04:46:18.764Z,348.45
2024-03-02T04:47:18.664Z,349.19
2024-03-02T04:48:18.790Z,348.82
2024-03-02T04:49:18.724Z,346.61
2024-03-02T04:50:18.634Z,348.45
2024-03-02T04:51:18.659Z,348.45
2024-03-02T04:52:18.598Z,349.19
2024-03-02T04:53:18.613Z,349.56
2024-03-02T04:54:18.698Z,349.56
2024-03-02T04:55:18.696Z,349.19
2024-03-02T04:56:18.613Z,348.45
2024-03-02T04:57:18.691Z,346.61
2024-03-02T04:58:18.787Z,346.61
2024-03-02T04:59:18.600Z,347.34
2024-03-02T05:00:18.589Z,348.82
2024-03-02T05:01:18.849Z,346.97
2024-03-02T05:02:18.528Z,346.61
2024-03-02T05:03:18.550Z,346.97
2024-03-02T05:04:18.521Z,346.97
2024-03-02T05:05:18.480Z,348.08
2024-03-02T05:06:18.504Z,346.61
2024-03-02T05:07:18.482Z,348.08
2024-03-02T05:08:18.539Z,346.97
2024-03-02T05:09:18.464Z,345.88
2024-03-02T05:10:18.431Z,346.24
2024-03-02T05:11:18.530Z,346.61
2024-03-02T05:12:18.430Z,346.61
2024-03-02T05:13:18.393Z,346.24
2024-03-02T05:14:18.381Z,345.51
2024-03-02T05:15:18.430Z,344.79
2024-03-02T05:16:18.407Z,342.98
2024-03-02T05:17:18.395Z,345.51
2024-03-02T05:18:18.359Z,345.15
2024-03-02T05:19:18.373Z,344.42
2024-03-02T05:20:18.313Z,344.42
2024-03-02T05:21:18.452Z,344.06
2024-03-02T05:22:18.324Z,344.42
2024-03-02T05:23:18.280Z,343.34
2024-03-02T05:24:18.411Z,344.06
2024-03-02T05:25:18.277Z,343.34
2024-03-02T05:26:18.267Z,343.70
2024-03-02T05:27:18.262Z,343.34
2024-03-02T05:28:18.201Z,342.98
2024-03-02T05:29:18.265Z,342.98
2024-03-02T05:30:18.294Z,342.27
2024-03-02T05:31:18.240Z,340.49
2024-03-02T05:32:18.259Z,340.14
2024-03-02T05:33:18.244Z,343.34
2024-03-02T05:34:18.202Z,343.34
2024-03-02T05:35:18.173Z,340.49
2024-03-02T05:36:18.222Z,341.55
2024-03-02T05:37:18.144Z,341.91
2024-03-02T05:38:18.121Z,339.08
2024-03-02T05:39:18.213Z,341.91
2024-03-02T05:40:19.480Z,340.85
2024-03-02T05:41:18.103Z,340.49
2024-03-02T05:42:18.259Z,341.91
2024-03-02T05:43:18.159Z,340.49
2024-03-02T05:44:18.082Z,340.49
2024-03-02T05:45:18.333Z,339.43
2024-03-02T05:46:18.065Z,338.04
2024-03-02T05:47:18.041Z,339.08
2024-03-02T05:48:18.024Z,342.98
2024-03-02T05:49:18.118Z,340.49
2024-03-02T05:50:18.053Z,342.62
2024-03-02T05:51:18.016Z,338.73
2024-03-02T05:52:18.011Z,339.08
2024-03-02T05:53:17.927Z,341.20
2024-03-02T05:54:17.984Z,340.49
2024-03-02T05:55:17.990Z,337.69
2024-03-02T05:56:17.952Z,336.30
2024-03-02T05:57:18.202Z,338.39
2024-03-02T05:58:17.884Z,339.79
2024-03-02T05:59:17.868Z,336.30
2024-03-02T06:00:17.911Z,336.30
2024-03-02T06:01:18.044Z,337.69
2024-03-02T06:02:17.837Z,334.93
2024-03-02T06:03:17.879Z,336.65
2024-03-02T06:04:17.823Z,334.93
2024-03-02T06:05:17.858Z,334.93
2024-03-02T06:06:17.849Z,335.62
2024-03-02T06:07:17.788Z,333.91
2024-03-02T06:08:17.780Z,332.89
2024-03-02T06:09:17.785Z,333.57
2024-03-02T06:10:17.886Z,332.22
2024-03-02T06:11:17.857Z,333.23
2024-03-02T06:12:17.811Z,333.57
2024-03-02T06:13:17.732Z,333.57
2024-03-02T06:14:17.740Z,334.25
2024-03-02T06:15:17.759Z,336.99
2024-03-02T06:16:17.714Z,334.25
2024-03-02T06:17:17.677Z,334.25
2024-03-02T06:18:17.693Z,333.57
2024-03-02T06:19:17.728Z,335.96
2024-03-02T06:20:17.723Z,334.59
2024-03-02T06:21:17.739Z,335.27
2024-03-02T06:22:17.629Z,335.62
2024-03-02T06:23:17.622Z,336.30
2024-03-02T06:24:17.637Z,333.91
2024-03-02T06:25:17.612Z,333.91
2024-03-02T06:26:17.622Z,333.91
2024-03-02T06:27:17.596Z,334.25
2024-03-02T06:28:17.549Z,334.25
2024-03-02T06:29:17.542Z,335.27
2024-03-02T06:30:17.722Z,332.89
2024-03-02T06:31:17.533Z,335.62
2024-03-02T06:32:17.523Z,334.59
2024-03-02T06:33:17.572Z,333.91
2024-03-02T06:34:17.490Z,332.22
2024-03-02T06:35:17.544Z,333.91
2024-03-02T06:36:17.620Z,332.55
2024-03-02T06:37:17.461Z,334.59
2024-03-02T06:38:17.465Z,331.21
2024-03-02T06:39:17.512Z,332.89
2024-03-02T06:40:17.500Z,332.55
2024-03-02T06:41:17.411Z,333.23
2024-03-02T06:42:17.453Z,330.21
2024-03-02T06:43:17.410Z,329.55
2024-03-02T06:44:17.413Z,331.21
2024-03-02T06:45:17.956Z,329.88
2024-03-02T06:46:17.808Z,329.22
2024-03-02T06:47:17.969Z,332.22
2024-03-02T06:48:17.630Z,328.23
2024-03-02T06:49:17.801Z,328.56
2024-03-02T06:50:17.356Z,328.89
2024-03-02T06:51:17.380Z,330.55
2024-03-02T06:52:17.352Z,330.21
2024-03-02T06:53:17.738Z,328.89
2024-03-02T06:54:17.325Z,328.89
2024-03-02T06:55:17.272Z,328.89
2024-03-02T06:56:17.263Z,328.23
2024-03-02T06:57:17.248Z,329.55
2024-03-02T06:58:17.242Z,328.56
2024-03-02T06:59:17.553Z,328.89
2024-03-02T07:00:17.304Z,326.92
2024-03-02T07:01:17.231Z,328.89
2024-03-02T07:02:17.406Z,326.27
2024-03-02T07:03:17.233Z,327.25
2024-03-02T07:04:17.752Z,325.30
2024-03-02T07:05:17.171Z,325.95
2024-03-02T07:06:17.600Z,326.92
2024-03-02T07:07:17.140Z,326.92
2024-03-02T07:08:17.146Z,326.27
2024-03-02T07:09:17.348Z,326.27
2024-03-02T07:10:17.216Z,324.66
2024-03-02T07:11:17.149Z,326.92
2024-03-02T07:12:17.332Z,323.38
2024-03-02T07:13:17.083Z,324.34
2024-03-02T07:14:17.055Z,323.70
2024-03-02T07:15:17.192Z,323.38
2024-03-02T07:16:17.135Z,324.34
2024-03-02T07:17:17.044Z,323.38
2024-03-02T07:18:17.108Z,322.74
2024-03-02T07:19:17.439Z,323.06
2024-03-02T07:20:17.103Z,321.79
2024-03-02T07:21:17.000Z,321.79
2024-03-02T07:22:16.985Z,321.48
2024-03-02T07:23:17.096Z,320.22
2024-03-02T07:24:17.023Z,319.60
2024-03-02T07:27:16.914Z,318.05
2024-03-02T07:28:16.909Z,319.60
2024-03-02T07:29:16.968Z,318.98
2024-03-02T07:30:16.905Z,316.82
2024-03-02T07:31:16.920Z,318.36
2024-03-02T07:32:16.888Z,317.13
2024-03-02T07:33:16.929Z,316.21
2024-03-02T07:34:16.865Z,316.52
2024-03-02T07:35:16.880Z,315.60
2024-03-02T07:36:16.867Z,316.21
2024-03-02T07:37:17.798Z,314.69
2024-03-02T07:38:16.834Z,315.30
2024-03-02T07:39:16.847Z,314.39
2024-03-02T07:40:16.776Z,315.60
2024-03-02T07:41:16.884Z,313.49
2024-03-02T07:42:16.797Z,314.39
2024-03-02T07:43:16.755Z,313.79
2024-03-02T07:44:16.762Z,312.30
2024-03-02T07:45:16.795Z,312.30
2024-03-02T07:46:17.475Z,311.41
2024-03-02T07:47:16.730Z,313.19
2024-03-02T07:48:16.719Z,313.19
2024-03-02T07:49:16.696Z,310.82
2024-03-02T07:50:16.690Z,312.30
2024-03-02T07:51:16.686Z,312.00
2024-03-02T07:52:16.850Z,311.11
2024-03-02T07:53:16.648Z,309.06
2024-03-02T07:54:16.664Z,308.48
2024-03-02T07:55:16.642Z,309.06
2024-03-02T07:56:16.684Z,308.48
2024-03-02T07:57:16.593Z,309.06
2024-03-02T07:58:16.616Z,308.77
2024-03-02T07:59:16.581Z,309.64
2024-03-02T08:00:16.777Z,309.06
2024-03-02T08:01:16.619Z,308.48
2024-03-02T08:02:16.603Z,306.75
2024-03-02T08:03:16.576Z,307.90
2024-03-02T08:04:16.537Z,307.61
2024-03-02T08:05:16.506Z,307.33
2024-03-02T08:06:16.808Z,306.18
2024-03-02T08:07:16.473Z,305.32
2024-03-02T08:08:16.497Z,305.89
2024-03-02T08:09:17.533Z,305.61
2024-03-02T08:10:16.475Z,305.32
2024-03-02T08:11:16.508Z,303.91
2024-03-02T08:12:16.460Z,303.35
2024-03-02T08:13:16.463Z,304.76
2024-03-02T08:14:16.403Z,303.35
2024-03-02T08:15:16.470Z,303.35
2024-03-02T08:16:16.415Z,303.35
2024-03-02T08:17:16.397Z,303.07
2024-03-02T08:18:16.577Z,303.07
2024-03-02T08:19:16.595Z,301.67
2024-03-02T08:20:16.361Z,302.23
2024-03-02T08:21:16.388Z,304.76
2024-03-02T08:22:16.335Z,302.79
2024-03-02T08:23:16.561Z,301.67
2024-03-02T08:24:17.000Z,301.40
2024-03-02T08:25:16.677Z,306.46
2024-03-02T08:26:17.157Z,301.40
2024-03-02T08:27:16.257Z,301.95
2024-03-02T08:28:16.293Z,301.40
2024-03-02T08:29:16.246Z,298.92
2024-03-02T08:30:16.226Z,298.38
2024-03-02T08:31:16.198Z,300.84
2024-03-02T08:32:16.187Z,299.20
2024-03-02T08:33:16.272Z,297.57
2024-03-02T08:34:16.225Z,300.57
2024-03-02T08:35:16.165Z,297.84
2024-03-02T08:36:16.201Z,297.03
2024-03-02T08:37:16.178Z,297.03
2024-03-02T08:38:16.144Z,297.03
2024-03-02T08:39:16.226Z,295.69
2024-03-02T08:40:18.763Z,295.69
2024-03-02T08:41:16.101Z,301.67
2024-03-02T08:42:16.094Z,295.96
2024-03-02T08:43:16.080Z,295.43
2024-03-02T08:44:16.083Z,295.69
2024-03-02T08:45:16.120Z,301.12
2024-03-02T08:46:16.082Z,296.23
2024-03-02T08:47:16.051Z,299.20
2024-03-02T08:48:16.051Z,297.03
2024-03-02T08:49:16.030Z,292.01
2024-03-02T08:50:16.010Z,293.58
2024-03-02T08:51:16.015Z,293.05
2024-03-02T08:52:16.198Z,297.84
2024-03-02T08:53:15.980Z,293.58
2024-03-02T08:54:16.018Z,297.57
2024-03-02T08:55:15.963Z,296.49
2024-03-02T08:56:15.978Z,293.05
2024-03-02T08:57:15.931Z,292.01
2024-03-02T08:58:15.939Z,296.49
2024-03-02T08:59:15.998Z,294.63
2024-03-02T09:00:16.009Z,295.69
2024-03-02T09:01:16.535Z,295.43
2024-03-02T09:02:15.994Z,291.23
2024-03-02T09:03:15.876Z,294.37
2024-03-02T09:04:15.978Z,290.46
2024-03-02T09:05:15.909Z,289.69
2024-03-02T09:06:15.892Z,290.97
2024-03-02T09:07:15.871Z,294.37
2024-03-02T09:08:15.863Z,290.97
2024-03-02T09:09:15.810Z,296.23
2024-03-02T09:10:15.819Z,296.23
2024-03-02T09:11:15.914Z,290.46
2024-03-02T09:12:15.791Z,292.79
2024-03-02T09:13:15.777Z,289.94
2024-03-02T09:14:15.848Z,294.10
2024-03-02T09:15:15.755Z,292.01
2024-03-02T09:16:15.859Z,291.23
2024-03-02T09:17:15.713Z,294.10
2024-03-02T09:18:15.792Z,293.84
2024-03-02T09:19:15.798Z,289.43
2024-03-02T09:20:15.674Z,293.31
2024-03-02T09:21:15.736Z,292.01
2024-03-02T09:22:15.653Z,292.53
2024-03-02T09:23:15.660Z,293.05
2024-03-02T09:24:17.701Z,293.05
2024-03-02T09:25:15.656Z,296.76
2024-03-02T09:26:15.651Z,293.31
2024-03-02T09:27:15.645Z,295.16
2024-03-02T09:28:15.645Z,294.10
2024-03-02T09:29:15.618Z,294.63
2024-03-02T09:30:15.625Z,293.84
2024-03-02T09:31:15.626Z,295.43
2024-03-02T09:32:15.582Z,296.49
2024-03-02T09:33:18.283Z,295.69
2024-03-02T09:34:15.570Z,296.76
2024-03-02T09:35:15.510Z,299.47
2024-03-02T09:36:15.493Z,297.30
2024-03-02T09:37:15.488Z,297.84
2024-03-02T09:38:15.486Z,299.20
2024-03-02T09:39:15.592Z,298.11
2024-03-02T09:40:15.480Z,298.92
2024-03-02T09:41:15.449Z,301.95
2024-03-02T09:42:15.497Z,301.40
2024-03-02T09:43:15.456Z,300.84
2024-03-02T09:44:18.664Z,300.57
2024-03-02T09:45:15.399Z,300.57
2024-03-02T09:46:15.427Z,301.40
2024-03-02T09:47:15.405Z,300.02
2024-03-02T09:48:15.482Z,300.57
2024-03-02T09:49:15.409Z,300.29
2024-03-02T09:50:15.377Z,300.02
2024-03-02T09:51:15.343Z,300.57
2024-03-02T09:52:15.367Z,300.02
2024-03-02T09:53:15.332Z,298.92
2024-03-02T09:54:21.970Z,301.67
2024-03-02T09:56:27.257Z,334.93
2024-03-02T09:57:27.281Z,329.88
2024-03-02T09:58:27.247Z,328.56
2024-03-02T09:59:27.241Z,324.98
2024-03-02T10:00:27.299Z,323.70
2024-03-02T10:01:27.283Z,322.74
2024-03-02T10:02:27.197Z,320.22
2024-03-02T10:03:27.199Z,321.16
2024-03-02T10:04:27.167Z,320.22
2024-03-02T10:05:27.194Z,321.48
2024-03-02T10:06:27.188Z,322.42
2024-03-02T10:07:27.128Z,321.16
2024-03-02T10:08:27.137Z,320.22
2024-03-02T10:09:27.172Z,319.29
2024-03-02T10:10:27.432Z,320.22
2024-03-02T10:11:27.136Z,321.48
2024-03-02T10:12:27.106Z,320.85
2024-03-02T10:13:27.064Z,320.54
2024-03-02T10:14:27.087Z,322.11
2024-03-02T10:15:27.080Z,321.16
2024-03-02T10:16:27.048Z,322.42
2024-03-02T10:17:27.082Z,322.74
2024-03-02T10:18:27.055Z,325.95
2024-03-02T10:19:26.999Z,324.02
2024-03-02T10:20:26.995Z,326.27
2024-03-02T10:21:27.039Z,326.27
2024-03-02T10:22:27.006Z,327.90
2024-03-02T10:23:27.002Z,328.23
2024-03-02T10:24:26.980Z,330.88
2024-03-02T10:25:37.219Z,329.55
2024-03-02T10:26:27.939Z,331.55
2024-03-02T10:27:26.989Z,332.55
2024-03-02T10:28:26.917Z,333.23
2024-03-02T10:29:26.923Z,334.93
2024-03-02T10:30:26.927Z,334.59
2024-03-02T10:31:26.932Z,333.91
2024-03-02T10:32:26.932Z,334.25
2024-03-02T10:33:26.893Z,333.91
2024-03-02T10:34:26.854Z,337.34
2024-03-02T10:35:26.858Z,340.85
2024-03-02T10:36:26.895Z,337.34
2024-03-02T10:37:27.650Z,337.69
2024-03-02T10:38:26.817Z,340.14
2024-03-02T10:39:26.965Z,340.85
2024-03-02T10:40:26.784Z,337.69
2024-03-02T10:41:26.794Z,339.43
2024-03-02T10:42:26.851Z,340.14
2024-03-02T10:43:26.741Z,341.91
2024-03-02T10:44:26.754Z,341.91
2024-03-02T10:45:26.980Z,345.15
2024-03-02T10:46:26.747Z,344.06
2024-03-02T10:47:26.735Z,344.06
2024-03-02T10:48:26.732Z,343.34
2024-03-02T10:49:26.838Z,345.51
2024-03-02T10:50:26.679Z,344.79
2024-03-02T10:51:26.662Z,347.34
2024-03-02T10:52:26.672Z,345.88
2024-03-02T10:53:26.643Z,346.24
2024-03-02T10:54:26.659Z,347.71
2024-03-02T10:55:26.902Z,346.61
2024-03-02T10:56:26.706Z,348.82
2024-03-02T10:57:26.710Z,350.31
2024-03-02T10:58:26.658Z,351.43
2024-03-02T10:59:26.604Z,349.93
2024-03-02T11:00:26.778Z,352.19
2024-03-02T11:01:26.768Z,350.31
2024-03-02T11:02:26.623Z,351.06
2024-03-02T11:03:26.555Z,351.81
2024-03-02T11:04:26.531Z,354.85
2024-03-02T11:05:26.548Z,354.47
2024-03-02T11:06:26.565Z,356.78
2024-03-02T11:07:26.546Z,354.85
2024-03-02T11:08:26.489Z,356.01
2024-03-02T11:09:26.507Z,356.01
2024-03-02T11:10:26.463Z,356.39
2024-03-02T11:11:26.461Z,358.73
2024-03-02T11:12:26.495Z,357.56
2024-03-02T11:13:26.416Z,359.13
2024-03-02T11:14:26.436Z,360.70
2024-03-02T11:15:26.447Z,363.90
2024-03-02T11:16:26.417Z,364.71
2024-03-02T11:17:26.383Z,363.50
2024-03-02T11:18:26.456Z,363.50
2024-03-02T11:19:26.393Z,363.90
2024-03-02T11:20:26.371Z,365.12
2024-03-02T11:21:26.372Z,366.34
2024-03-02T11:22:26.368Z,366.75
2024-03-02T11:23:26.322Z,365.53
2024-03-02T11:24:26.354Z,366.34
2024-03-02T11:25:26.293Z,367.57
2024-03-02T11:26:26.316Z,367.16
2024-03-02T11:27:26.328Z,369.23
2024-03-02T11:28:26.258Z,370.48
2024-03-02T11:29:26.249Z,372.16
2024-03-02T11:30:26.267Z,373.43
2024-03-02T11:31:26.230Z,372.16
2024-03-02T11:32:26.240Z,373.43
2024-03-02T11:33:26.248Z,374.71
2024-03-02T11:34:26.191Z,373.01
2024-03-02T11:35:26.184Z,374.71
2024-03-02T11:36:26.201Z,374.28
2024-03-02T11:37:26.177Z,376.43
2024-03-02T11:38:26.170Z,374.71
2024-03-02T11:39:26.224Z,374.71
2024-03-02T11:40:26.127Z,377.30
2024-03-02T11:41:26.137Z,378.17
2024-03-02T11:42:26.171Z,376.43
2024-03-02T11:43:26.119Z,379.53
2024-03-02T11:44:26.108Z,380.39
2024-03-02T11:45:26.138Z,380.83
2024-03-02T11:46:26.066Z,381.48
2024-03-02T11:47:26.144Z,380.83
2024-03-02T11:48:26.109Z,383.90
2024-03-02T11:49:26.040Z,382.36
2024-03-02T11:50:26.028Z,382.58
2024-03-02T11:51:26.032Z,382.36
2024-03-02T11:52:26.046Z,386.35
2024-03-02T11:53:25.992Z,387.92
2024-03-02T11:54:25.989Z,387.47
2024-03-02T11:55:25.976Z,385.67
2024-03-02T11:56:25.983Z,383.02
2024-03-02T11:57:26.007Z,384.34
2024-03-02T11:58:25.970Z,385.23
2024-03-02T11:59:25.953Z,388.14
2024-03-02T12:00:25.995Z,385.45
2024-03-02T12:01:26.126Z,386.57
2024-03-02T12:02:26.025Z,384.34
2024-03-02T12:03:25.926Z,387.47
2024-03-02T12:04:25.901Z,385.67
2024-03-02T12:05:25.967Z,388.37
2024-03-02T12:06:25.884Z,386.12
2024-03-02T12:07:25.884Z,385.67
2024-03-02T12:08:25.846Z,389.73
2024-03-02T12:09:25.880Z,386.57
2024-03-02T12:10:25.891Z,387.02
2024-03-02T12:11:25.844Z,389.28
2024-03-02T12:12:25.860Z,391.10
2024-03-02T12:13:25.788Z,392.72
2024-03-02T12:14:25.781Z,392.25
2024-03-02T12:15:25.894Z,391.79
2024-03-02T12:16:26.785Z,394.34
2024-03-02T12:17:28.697Z,393.41
2024-03-02T12:18:25.848Z,393.41
2024-03-02T12:19:25.825Z,396.92
2024-03-02T12:20:25.691Z,396.45
2024-03-02T12:21:25.774Z,397.87
2024-03-02T12:22:25.679Z,399.06
2024-03-02T12:23:25.696Z,400.74
2024-03-02T12:24:25.665Z,397.16
2024-03-02T12:25:25.644Z,400.98
2024-03-02T12:26:25.636Z,396.69
2024-03-02T12:27:25.637Z,397.63
2024-03-02T12:28:25.663Z,399.30
2024-03-02T12:29:25.598Z,399.78
2024-03-02T12:30:25.608Z,401.46
2024-03-02T12:31:25.615Z,400.02